Time;durP1;ratioP1;P1;durP2;ratioP2;P2;SDS_P1;SDS_P2;PMS_P1;PMS_P2;Temp;Humidity;BMP_temperature;BMP_pressure;BME280_temperature;BME280_humidity;BME280_pressure;Samples;Min_cycle;Max_cycle;Signal;HPM_P1;HPM_P2
2023/06/09 00:00:33;;;;;;;5.03;1.70;;;;;;;8.50;100.00;100901.91;5057499;28;20064;-57
2023/06/09 00:03:05;;;;;;;2.20;1.20;;;;;;;8.57;100.00;100897.59;5066423;28;20134;-58
2023/06/09 00:05:39;;;;;;;3.15;1.60;;;;;;;8.67;100.00;100898.47;5054654;28;20150;-58
2023/06/09 00:08:11;;;;;;;1.42;1.10;;;;;;;8.62;100.00;100875.88;5060976;28;20036;-59
2023/06/09 00:10:44;;;;;;;2.95;1.48;;;;;;;8.83;100.00;100887.19;5036290;28;20140;-56
2023/06/09 00:13:17;;;;;;;2.40;1.67;;;;;;;8.88;100.00;100888.06;5047181;28;20044;-57
2023/06/09 00:15:50;;;;;;;2.20;1.30;;;;;;;8.88;100.00;100893.25;5036397;28;20048;-59
2023/06/09 00:18:24;;;;;;;2.78;1.58;;;;;;;8.89;100.00;100900.22;5046492;28;20494;-57
2023/06/09 00:20:59;;;;;;;2.75;1.30;;;;;;;8.88;100.00;100903.69;5035686;28;20139;-59
2023/06/09 00:23:31;;;;;;;1.40;1.08;;;;;;;8.99;100.00;100901.97;5045261;28;20052;-58
2023/06/09 00:26:02;;;;;;;2.50;1.58;;;;;;;8.93;100.00;100901.09;5038576;28;20499;-57
2023/06/09 00:28:33;;;;;;;3.85;1.40;;;;;;;8.91;100.00;100901.13;5051282;28;20462;-59
2023/06/09 00:31:05;;;;;;;8.63;1.30;;;;;;;8.94;100.00;100893.28;5065172;28;20047;-56
2023/06/09 00:33:39;;;;;;;3.92;1.25;;;;;;;8.83;100.00;100889.78;5054856;28;20063;-57
2023/06/09 00:36:13;;;;;;;2.97;1.45;;;;;;;8.87;100.00;100901.09;5065650;28;20476;-60
2023/06/09 00:38:44;;;;;;;2.55;1.25;;;;;;;8.90;100.00;100907.16;5055546;28;20055;-59
2023/06/09 00:41:16;;;;;;;2.63;1.20;;;;;;;9.02;100.00;100904.56;5066233;28;20054;-56
2023/06/09 00:43:50;;;;;;;4.78;1.40;;;;;;;8.98;100.00;100899.34;5054372;28;20044;-57
2023/06/09 00:46:22;;;;;;;2.85;1.30;;;;;;;9.03;100.00;100906.28;5065652;28;20501;-58
2023/06/09 00:48:53;;;;;;;1.85;1.10;;;;;;;8.97;100.00;100906.31;5055381;28;20097;-57
2023/06/09 00:51:28;;;;;;;1.70;1.02;;;;;;;8.92;100.00;100905.44;5065577;28;20553;-58
2023/06/09 00:54:02;;;;;;;1.45;1.20;;;;;;;8.98;100.00;100904.56;5055074;28;20062;-58
2023/06/09 00:56:34;;;;;;;1.15;0.90;;;;;;;8.97;100.00;100914.13;5055352;28;20429;-57
2023/06/09 00:59:06;;;;;;;1.85;1.20;;;;;;;8.92;100.00;100910.66;5065868;28;20055;-56
2023/06/09 01:01:40;;;;;;;1.42;1.00;;;;;;;8.92;100.00;100915.88;5055326;28;20142;-57
2023/06/09 01:04:12;;;;;;;1.98;1.30;;;;;;;8.91;100.00;100895.91;5066084;28;20518;-58
2023/06/09 01:07:00;;;;;;;3.47;1.20;;;;;;;8.95;100.00;100889.78;5055596;28;20139;-57
2023/06/09 01:09:38;;;;;;;2.22;1.30;;;;;;;9.11;100.00;100928.91;5054337;28;20048;-59
2023/06/09 01:12:20;;;;;;;2.78;1.45;;;;;;;9.13;100.00;100919.34;5065413;28;20433;-56
2023/06/09 01:15:05;;;;;;;2.05;1.48;;;;;;;9.23;100.00;100921.06;5054662;28;20053;-58
2023/06/09 01:17:39;;;;;;;1.92;1.25;;;;;;;9.34;100.00;100919.34;5054474;28;20504;-58
2023/06/09 01:20:16;;;;;;;8.48;1.92;;;;;;;9.36;100.00;100904.56;5065007;28;20453;-56
2023/06/09 01:22:54;;;;;;;2.58;1.40;;;;;;;9.32;100.00;100905.44;5054569;28;20048;-58
2023/06/09 01:25:34;;;;;;;1.38;1.15;;;;;;;9.34;100.00;100908.91;5045283;28;20098;-54
2023/06/09 01:28:08;;;;;;;3.65;1.33;;;;;;;9.21;100.00;100907.16;5016683;28;20533;-58
2023/06/09 01:30:42;;;;;;;1.60;1.50;;;;;;;9.11;100.00;100902.81;5016284;28;20401;-56
2023/06/09 01:33:18;;;;;;;1.83;1.23;;;;;;;9.15;100.00;100901.97;5034604;28;20048;-58
2023/06/09 01:35:51;;;;;;;2.35;1.30;;;;;;;9.00;100.00;100871.56;5016332;28;20056;-57
2023/06/09 01:38:25;;;;;;;2.10;1.23;;;;;;;9.23;100.00;100898.47;5054771;28;20501;-57
2023/06/09 01:40:59;;;;;;;3.17;1.55;;;;;;;9.31;100.00;100903.72;5046701;28;20103;-57
2023/06/09 01:43:30;;;;;;;2.45;1.40;;;;;;;9.36;100.00;100906.28;5062794;28;20048;-59
2023/06/09 01:46:02;;;;;;;2.15;1.30;;;;;;;9.48;100.00;100907.16;5045591;28;20100;-57
2023/06/09 01:48:44;;;;;;;3.30;1.50;;;;;;;9.41;100.00;100899.31;5054232;28;20525;-56
2023/06/09 01:51:24;;;;;;;2.17;1.30;;;;;;;9.36;100.00;100901.06;5057036;28;20059;-58
2023/06/09 01:54:02;;;;;;;1.95;1.40;;;;;;;9.33;100.00;100890.66;5045166;28;20052;-57
2023/06/09 01:56:42;;;;;;;2.50;1.15;;;;;;;9.43;100.00;100898.44;5036666;28;20052;-58
2023/06/09 01:59:21;;;;;;;3.22;1.70;;;;;;;9.40;100.00;100903.69;5042263;28;20056;-58
2023/06/09 02:01:54;;;;;;;2.20;1.40;;;;;;;9.35;100.00;100910.66;5034862;28;20055;-58
2023/06/09 02:04:27;;;;;;;2.20;1.60;;;;;;;9.25;100.00;100916.75;5038640;28;20048;-60
2023/06/09 02:07:00;;;;;;;2.90;1.65;;;;;;;9.17;100.00;100905.44;5019841;28;20057;-58
2023/06/09 02:09:32;;;;;;;3.20;1.58;;;;;;;9.20;100.00;100900.22;5026424;28;20140;-59
2023/06/09 02:12:06;;;;;;;3.10;1.70;;;;;;;9.28;100.00;100903.69;5031238;28;20550;-59
2023/06/09 02:14:39;;;;;;;2.60;1.58;;;;;;;9.21;100.00;100907.16;5020612;28;20060;-59
2023/06/09 02:17:10;;;;;;;3.55;2.03;;;;;;;9.20;100.00;100895.00;5030589;28;20048;-59
2023/06/09 02:19:41;;;;;;;5.22;1.88;;;;;;;9.21;100.00;100896.72;5020769;28;20048;-58
2023/06/09 02:22:12;;;;;;;3.00;1.83;;;;;;;9.20;100.00;100895.88;5030026;28;20140;-59
2023/06/09 02:24:43;;;;;;;4.20;1.70;;;;;;;9.24;100.00;100907.19;5021181;28;20131;-58
2023/06/09 02:27:16;;;;;;;2.58;1.73;;;;;;;9.28;100.00;100903.69;5030469;28;20109;-59
2023/06/09 02:29:47;;;;;;;2.40;1.77;;;;;;;9.29;100.00;100895.00;5021180;28;20066;-60
2023/06/09 02:32:19;;;;;;;3.45;2.05;;;;;;;9.30;100.00;100891.53;5031454;28;20096;-58
2023/06/09 02:34:50;;;;;;;5.53;1.98;;;;;;;9.37;100.00;100888.03;5020769;28;20109;-59
2023/06/09 02:37:22;;;;;;;4.43;1.48;;;;;;;9.47;100.00;100900.19;5030423;28;20068;-58
2023/06/09 02:39:53;;;;;;;2.35;1.77;;;;;;;9.41;100.00;100873.25;5020733;28;20052;-58
2023/06/09 02:42:26;;;;;;;3.55;2.13;;;;;;;9.48;100.00;100865.44;5030744;28;20063;-59
2023/06/09 02:44:57;;;;;;;4.45;2.13;;;;;;;9.56;100.00;100846.25;5018931;28;20053;-59
2023/06/09 02:47:29;;;;;;;2.45;1.80;;;;;;;9.66;100.00;100848.84;5029587;28;20064;-59
2023/06/09 02:50:01;;;;;;;3.15;1.75;;;;;;;9.71;100.00;100857.53;5019699;28;20060;-59
2023/06/09 02:52:32;;;;;;;2.67;1.92;;;;;;;9.91;100.00;100849.63;5021075;28;20106;-59
2023/06/09 02:55:04;;;;;;;4.03;1.63;;;;;;;10.04;100.00;100846.97;5030409;28;20057;-58
2023/06/09 02:57:38;;;;;;;8.43;2.60;;;;;;;10.18;100.00;100852.09;5019665;28;20413;-59
2023/06/09 03:00:12;;;;;;;2.35;1.90;;;;;;;10.38;100.00;100839.81;5047488;28;20434;-58
2023/06/09 03:02:45;;;;;;;2.50;1.60;;;;;;;10.52;100.00;100837.13;5038563;28;20144;-59
2023/06/09 03:05:20;;;;;;;3.20;1.70;;;;;;;10.60;100.00;100851.00;5049027;28;20056;-57
2023/06/09 03:07:53;;;;;;;3.38;1.80;;;;;;;10.67;100.00;100841.38;5038812;28;20051;-57
2023/06/09 03:10:25;;;;;;;3.22;1.70;;;;;;;10.66;100.00;100845.75;5049843;28;20052;-56
2023/06/09 03:12:58;;;;;;;2.15;1.60;;;;;;;10.69;100.00;100821.31;5029027;28;20075;-58
2023/06/09 03:15:30;;;;;;;4.13;1.85;;;;;;;10.84;100.00;100828.19;5034894;28;20457;-59
2023/06/09 03:18:02;;;;;;;4.45;2.10;;;;;;;10.85;100.00;100828.16;5038839;28;20474;-58
2023/06/09 03:20:36;;;;;;;2.83;1.92;;;;;;;10.89;100.00;100836.84;5038555;28;20072;-59
2023/06/09 03:23:08;;;;;;;2.85;1.98;;;;;;;10.87;100.00;100834.22;5045894;28;21272;-60
2023/06/09 03:25:40;;;;;;;3.63;1.70;;;;;;;10.90;100.00;100838.56;5038439;28;20053;-58
2023/06/09 03:28:13;;;;;;;6.75;2.40;;;;;;;10.89;100.00;100839.47;5049830;28;20478;-59
2023/06/09 03:30:46;;;;;;;2.22;1.52;;;;;;;10.89;100.00;100842.94;5038514;28;20064;-57
2023/06/09 03:33:19;;;;;;;2.55;1.73;;;;;;;10.90;100.00;100839.44;5048904;28;20117;-59
2023/06/09 03:35:51;;;;;;;5.97;2.85;;;;;;;10.90;100.00;100838.56;5038095;28;20057;-59
2023/06/09 03:38:22;;;;;;;3.58;2.00;;;;;;;10.84;100.00;100833.41;5049206;28;20040;-59
2023/06/09 03:40:55;;;;;;;3.85;1.80;;;;;;;10.73;100.00;100842.19;5042013;28;20048;-59
2023/06/09 03:43:30;;;;;;;6.85;2.67;;;;;;;10.73;100.00;100828.25;5052420;28;20610;-58
2023/06/09 03:46:02;;;;;;;3.03;2.15;;;;;;;10.72;100.00;100824.78;5042415;28;20261;-59
2023/06/09 03:48:34;;;;;;;6.53;2.30;;;;;;;10.73;100.00;100821.28;5042077;28;20062;-58
2023/06/09 03:51:06;;;;;;;6.60;2.20;;;;;;;10.86;100.00;100808.09;5051896;28;20148;-59
2023/06/09 03:53:38;;;;;;;3.60;2.20;;;;;;;11.01;100.00;100818.44;5042267;28;20047;-59
2023/06/09 03:56:09;;;;;;;6.38;2.25;;;;;;;11.09;99.70;100814.00;5051825;28;20048;-59
2023/06/09 03:58:43;;;;;;;7.93;2.72;;;;;;;11.08;99.80;100807.00;5041463;28;20448;-59
2023/06/09 04:01:17;;;;;;;5.13;2.40;;;;;;;11.07;99.05;100810.53;5053087;28;20047;-59
2023/06/09 04:03:49;;;;;;;6.63;2.22;;;;;;;11.04;99.00;100791.38;5042090;28;20062;-58
2023/06/09 04:06:21;;;;;;;1.98;1.33;;;;;;;11.17;98.24;100814.78;5051310;28;20052;-58
2023/06/09 04:08:53;;;;;;;5.60;2.25;;;;;;;11.21;98.65;100808.63;5041292;28;20040;-57
2023/06/09 04:11:24;;;;;;;7.57;2.25;;;;;;;11.29;98.82;100815.53;5051722;28;20387;-59
2023/06/09 04:13:59;;;;;;;9.32;3.00;;;;;;;11.08;98.15;100788.69;5030286;28;20087;-59
2023/06/09 04:16:30;;;;;;;6.85;3.15;;;;;;;11.14;98.20;100806.97;5041140;28;20053;-58
2023/06/09 04:19:03;;;;;;;3.95;2.72;;;;;;;11.25;99.04;100798.13;5041587;28;20391;-58
2023/06/09 04:21:35;;;;;;;7.35;2.42;;;;;;;11.39;99.17;100796.25;5041784;28;20058;-59
2023/06/09 04:24:08;;;;;;;5.20;2.45;;;;;;;11.43;98.47;100797.94;5052090;28;20063;-58
2023/06/09 04:26:41;;;;;;;4.68;2.25;;;;;;;11.37;97.43;100793.63;5041015;28;20056;-60
2023/06/09 04:29:17;;;;;;;5.00;2.05;;;;;;;11.36;97.63;100806.75;5051783;28;20302;-59
2023/06/09 04:31:53;;;;;;;6.57;2.38;;;;;;;11.25;97.70;100803.38;5041661;28;20052;-58
2023/06/09 04:34:25;;;;;;;3.70;2.03;;;;;;;11.13;97.68;100800.00;5051563;28;20135;-59
2023/06/09 04:36:59;;;;;;;5.68;2.38;;;;;;;10.97;98.26;100799.28;5049707;28;20052;-58
2023/06/09 04:39:31;;;;;;;4.80;2.05;;;;;;;10.86;98.84;100793.28;5060349;28;20653;-58
2023/06/09 04:42:04;;;;;;;5.25;2.58;;;;;;;10.84;99.44;100792.44;5035440;28;20044;-59
2023/06/09 04:44:37;;;;;;;4.38;2.53;;;;;;;10.85;99.15;100788.06;5033939;28;20052;-60
2023/06/09 04:47:11;;;;;;;6.72;2.47;;;;;;;10.73;98.86;100799.50;5041153;28;20075;-60
2023/06/09 04:49:42;;;;;;;5.55;2.58;;;;;;;10.44;100.00;100786.69;5030522;28;20315;-58
2023/06/09 04:52:17;;;;;;;6.95;2.70;;;;;;;10.42;100.00;100802.34;5039455;28;20156;-59
2023/06/09 04:54:51;;;;;;;5.43;2.20;;;;;;;10.30;100.00;100800.69;5030744;28;20049;-59
2023/06/09 04:57:22;;;;;;;3.75;2.38;;;;;;;10.32;100.00;100814.59;5040353;28;20060;-58
2023/06/09 04:59:55;;;;;;;5.10;2.70;;;;;;;10.27;100.00;100812.88;5027212;28;20044;-60
2023/06/09 05:02:27;;;;;;;4.72;2.50;;;;;;;10.12;100.00;100806.00;5049264;28;20047;-57
2023/06/09 05:05:00;;;;;;;4.25;2.70;;;;;;;10.04;100.00;100819.09;5030928;28;20113;-59
2023/06/09 05:07:31;;;;;;;5.97;2.47;;;;;;;10.02;100.00;100831.28;5035093;28;20056;-59
2023/06/09 05:10:02;;;;;;;6.28;2.55;;;;;;;10.13;100.00;100826.91;5041361;28;20049;-60
2023/06/09 05:12:34;;;;;;;3.08;1.83;;;;;;;10.32;100.00;100814.59;5030462;28;20048;-60
2023/06/09 05:15:09;;;;;;;4.20;2.83;;;;;;;10.28;100.00;100812.91;5040739;28;20048;-60
2023/06/09 05:17:41;;;;;;;5.15;2.55;;;;;;;10.32;100.00;100808.53;5030330;28;20059;-60
2023/06/09 05:20:13;;;;;;;4.43;2.58;;;;;;;10.41;100.00;100816.31;5040278;28;20078;-58
2023/06/09 05:22:45;;;;;;;5.18;3.03;;;;;;;10.39;100.00;100804.13;5030756;28;20052;-60
2023/06/09 05:25:18;;;;;;;6.50;2.70;;;;;;;10.47;100.00;100810.16;5041132;28;20099;-58
2023/06/09 05:27:49;;;;;;;3.92;2.45;;;;;;;10.34;100.00;100786.72;5029823;28;20045;-57
2023/06/09 05:30:22;;;;;;;6.05;2.60;;;;;;;10.66;100.00;100809.16;5040210;28;20052;-58
2023/06/09 05:32:53;;;;;;;5.97;2.28;;;;;;;10.59;99.27;100797.00;5030007;28;20056;-60
2023/06/09 05:35:25;;;;;;;5.13;2.22;;;;;;;10.53;98.83;100802.25;5039932;28;20048;-58
2023/06/09 05:37:58;;;;;;;3.90;2.25;;;;;;;10.44;99.59;100786.69;5048629;28;20143;-59
2023/06/09 05:40:30;;;;;;;3.40;2.28;;;;;;;10.49;100.00;100795.34;5059499;28;20131;-59
2023/06/09 05:43:02;;;;;;;4.40;2.42;;;;;;;10.43;99.30;100785.78;5029925;28;20131;-59
2023/06/09 05:45:35;;;;;;;6.25;2.75;;;;;;;10.36;100.00;100787.59;5026133;28;20059;-60
2023/06/09 05:48:07;;;;;;;4.43;2.47;;;;;;;10.31;100.00;100776.31;5053421;28;20055;-60
2023/06/09 05:50:38;;;;;;;4.47;2.08;;;;;;;10.12;100.00;100761.59;5049398;28;20095;-59
2023/06/09 05:53:09;;;;;;;2.72;1.73;;;;;;;10.21;100.00;100795.50;5059433;28;20357;-58
2023/06/09 05:55:40;;;;;;;5.68;2.13;;;;;;;9.91;100.00;100770.44;5049515;28;20032;-60
2023/06/09 05:58:12;;;;;;;4.43;2.10;;;;;;;10.03;100.00;100780.78;5059580;28;20052;-59
2023/06/09 06:00:46;;;;;;;4.85;2.45;;;;;;;10.04;100.00;100792.13;5049486;28;20132;-59
2023/06/09 06:03:18;;;;;;;5.38;3.13;;;;;;;10.08;100.00;100792.09;5059685;28;20063;-59
2023/06/09 06:05:50;;;;;;;4.88;2.60;;;;;;;10.24;100.00;100790.25;5048931;28;20142;-57
2023/06/09 06:08:22;;;;;;;9.02;3.10;;;;;;;10.19;100.00;100797.25;5058601;28;20055;-57
2023/06/09 06:10:54;;;;;;;5.63;2.78;;;;;;;10.17;100.00;100799.00;5048280;28;20060;-59
2023/06/09 06:13:25;;;;;;;5.82;2.50;;;;;;;10.11;100.00;100784.25;5060380;28;20052;-59
2023/06/09 06:16:00;;;;;;;5.70;2.55;;;;;;;10.16;100.00;100776.41;5048486;28;20051;-58
2023/06/09 06:18:32;;;;;;;8.63;2.25;;;;;;;10.19;100.00;100781.59;5051882;28;20055;-59
2023/06/09 06:21:03;;;;;;;4.30;2.72;;;;;;;10.10;100.00;100792.09;5058819;28;20425;-58
2023/06/09 06:23:35;;;;;;;7.68;2.78;;;;;;;10.15;100.00;100779.84;5048450;28;20075;-57
2023/06/09 06:26:08;;;;;;;4.13;2.72;;;;;;;10.04;100.00;100792.13;5058492;28;20063;-58
2023/06/09 06:28:39;;;;;;;4.28;2.47;;;;;;;10.01;100.00;100787.78;5048124;28;20043;-58
2023/06/09 06:31:13;;;;;;;10.10;3.10;;;;;;;10.08;100.00;100793.81;5059443;28;20060;-60
2023/06/09 06:33:45;;;;;;;4.30;2.60;;;;;;;10.03;100.00;100790.38;5047983;28;20063;-58
2023/06/09 06:36:21;;;;;;;4.82;2.50;;;;;;;9.97;100.00;100786.06;5058705;28;20083;-57
2023/06/09 06:38:52;;;;;;;5.53;2.42;;;;;;;9.90;100.00;100780.00;5048159;28;20076;-60
2023/06/09 06:41:23;;;;;;;3.08;2.30;;;;;;;9.90;100.00;100787.84;5058481;28;20104;-59
2023/06/09 06:43:54;;;;;;;3.33;2.10;;;;;;;9.58;100.00;100750.59;5048606;28;20493;-58
2023/06/09 06:46:27;;;;;;;6.88;2.45;;;;;;;9.71;100.00;100783.59;5058372;28;20044;-57
2023/06/09 06:48:58;;;;;;;4.53;2.03;;;;;;;9.60;100.00;100780.16;5028959;28;20142;-59
2023/06/09 06:51:30;;;;;;;7.00;2.40;;;;;;;9.54;100.00;100780.19;5035354;28;20842;-59
2023/06/09 06:54:03;;;;;;;5.35;2.33;;;;;;;9.52;100.00;100779.31;5047839;28;20124;-59
2023/06/09 06:56:34;;;;;;;4.53;2.30;;;;;;;9.43;100.00;100778.47;5047389;28;20055;-58
2023/06/09 06:59:06;;;;;;;4.05;2.05;;;;;;;9.28;100.00;100768.09;5058247;28;20060;-60
2023/06/09 07:01:40;;;;;;;6.63;2.60;;;;;;;9.23;100.00;100780.28;5047611;28;20095;-58
2023/06/09 07:04:11;;;;;;;2.95;1.90;;;;;;;9.16;100.00;100778.53;5059062;28;20746;-59
2023/06/09 07:06:47;;;;;;;3.80;2.13;;;;;;;8.62;100.00;100697.88;5040223;28;20051;-59
2023/06/09 07:09:20;;;;;;;4.57;2.45;;;;;;;8.75;100.00;100724.78;5055439;28;20483;-58
2023/06/09 07:11:51;;;;;;;5.20;2.45;;;;;;;9.01;100.00;100762.09;5046866;28;20121;-58
2023/06/09 07:14:22;;;;;;;4.55;2.67;;;;;;;9.05;100.00;100776.84;5059982;28;20076;-59
2023/06/09 07:16:58;;;;;;;5.43;2.30;;;;;;;9.11;100.00;100775.09;5049218;28;20105;-57
2023/06/09 07:19:36;;;;;;;6.68;2.50;;;;;;;9.11;100.00;100775.09;5059984;28;20044;-58
2023/06/09 07:22:17;;;;;;;2.88;2.00;;;;;;;9.04;100.00;100780.31;5062117;28;20386;-59
2023/06/09 07:24:50;;;;;;;4.05;2.05;;;;;;;8.93;100.00;100776.00;5048448;28;20112;-59
2023/06/09 07:27:21;;;;;;;2.70;1.77;;;;;;;8.94;100.00;100768.19;5055857;28;20062;-58
2023/06/09 07:29:52;;;;;;;3.65;2.13;;;;;;;8.92;100.00;100759.50;5047889;28;20162;-58
2023/06/09 07:32:24;;;;;;;3.95;2.30;;;;;;;8.91;100.00;100736.91;5057218;28;20047;-58
2023/06/09 07:34:57;;;;;;;6.40;2.40;;;;;;;9.00;100.00;100757.72;5050643;28;20402;-61
2023/06/09 07:37:28;;;;;;;5.38;1.95;;;;;;;9.04;100.00;100759.47;5061383;28;20052;-58
2023/06/09 07:39:59;;;;;;;5.30;2.42;;;;;;;9.10;100.00;100752.50;5031825;28;20052;-58
2023/06/09 07:42:48;;;;;;;4.53;2.05;;;;;;;9.11;100.00;100751.63;5028658;28;20162;-60
2023/06/09 07:45:19;;;;;;;3.13;2.00;;;;;;;9.10;100.00;100760.31;5057059;28;20394;-59
2023/06/09 07:47:52;;;;;;;4.07;2.30;;;;;;;9.02;100.00;100745.56;5051354;28;20142;-59
2023/06/09 07:50:22;;;;;;;5.43;2.17;;;;;;;9.02;100.00;100745.56;5061619;28;20069;-58
2023/06/09 07:52:53;;;;;;;6.95;2.30;;;;;;;9.10;100.00;100752.50;5050646;28;20767;-60
2023/06/09 07:55:25;;;;;;;3.05;1.95;;;;;;;9.12;100.00;100750.75;5061803;28;20132;-58
2023/06/09 07:57:56;;;;;;;4.75;2.85;;;;;;;9.07;100.00;100736.00;5050660;28;20060;-59
2023/06/09 08:00:26;;;;;;;4.38;2.63;;;;;;;9.19;100.00;100757.69;5061625;28;20052;-58
2023/06/09 08:03:03;;;;;;;8.93;2.85;;;;;;;9.30;100.00;100755.91;5031107;28;20129;-60
2023/06/09 08:05:34;;;;;;;2.63;1.90;;;;;;;9.29;100.00;100748.97;5040434;28;20052;-60
2023/06/09 08:08:06;;;;;;;6.93;2.10;;;;;;;9.24;100.00;100755.94;5061556;28;20052;-58
2023/06/09 08:10:36;;;;;;;4.03;2.30;;;;;;;9.18;100.00;100737.69;5050652;28;20573;-59
2023/06/09 08:13:08;;;;;;;3.58;2.30;;;;;;;9.18;100.00;100750.72;5061757;28;20066;-60
2023/06/09 08:15:39;;;;;;;5.75;2.22;;;;;;;9.19;100.00;100758.56;5050523;28;20482;-60
2023/06/09 08:18:11;;;;;;;6.57;2.28;;;;;;;9.21;100.00;100755.94;5058352;28;20133;-60
2023/06/09 08:20:42;;;;;;;3.17;2.15;;;;;;;9.23;100.00;100764.63;5051197;28;20056;-59
2023/06/09 08:23:12;;;;;;;2.45;1.70;;;;;;;9.20;100.00;100755.06;5060950;28;20087;-59
2023/06/09 08:25:43;;;;;;;8.93;2.25;;;;;;;9.15;100.00;100750.75;5049539;28;20097;-59
2023/06/09 08:28:13;;;;;;;4.60;2.33;;;;;;;9.14;100.00;100743.81;5061309;28;20075;-59
2023/06/09 08:30:44;;;;;;;3.40;2.25;;;;;;;9.10;100.00;100747.28;5050082;28;20044;-59
2023/06/09 08:33:16;;;;;;;4.13;1.80;;;;;;;9.03;100.00;100746.44;5061472;28;20052;-59
2023/06/09 08:35:48;;;;;;;5.13;2.38;;;;;;;8.97;100.00;100741.25;5050989;28;20051;-59
2023/06/09 08:38:18;;;;;;;3.63;1.88;;;;;;;8.95;100.00;100748.19;5061013;28;20083;-59
2023/06/09 08:40:51;;;;;;;7.50;2.97;;;;;;;8.97;100.00;100747.31;5050598;28;20105;-58
2023/06/09 08:43:21;;;;;;;4.35;2.50;;;;;;;9.07;100.00;100741.22;5061242;28;20056;-59
2023/06/09 08:45:54;;;;;;;7.72;2.40;;;;;;;9.02;100.00;100740.34;5030061;28;20079;-59
2023/06/09 08:48:28;;;;;;;4.75;1.90;;;;;;;8.99;100.00;100745.59;5040607;28;20494;-58
2023/06/09 08:51:00;;;;;;;6.30;2.50;;;;;;;8.88;100.00;100726.47;5029889;28;20148;-58
2023/06/09 08:53:31;;;;;;;3.30;2.05;;;;;;;8.63;100.00;100695.25;5037949;28;20426;-59
2023/06/09 08:56:02;;;;;;;3.25;2.13;;;;;;;8.90;100.00;100729.94;5039881;28;20088;-58
2023/06/09 08:58:34;;;;;;;4.75;2.05;;;;;;;8.93;100.00;100723.88;5029151;28;20480;-57
2023/06/09 09:01:24;;;;;;;6.32;2.45;;;;;;;8.99;100.00;100724.72;5040591;28;20139;-59
2023/06/09 09:04:00;;;;;;;4.30;2.40;;;;;;;8.94;100.00;100726.47;5020276;28;20119;-59
2023/06/09 09:06:39;;;;;;;3.33;2.00;;;;;;;8.81;100.00;100735.16;5038776;28;20055;-59
2023/06/09 09:09:11;;;;;;;4.68;2.38;;;;;;;8.36;100.00;100674.41;5033173;28;20056;-58
2023/06/09 09:12:17;;;;;;;9.98;2.97;;;;;;;8.63;100.00;100742.13;5039826;28;20056;-59
2023/06/09 09:15:17;;;;;;;;;;;;;;;8.56;100.00;100724.81;4969540;28;20666;-57
2023/06/09 09:33:22;;;;;;;5.50;2.83;;;;;;;8.32;100.00;100740.41;4781142;29;20124;-57
2023/06/09 09:35:55;;;;;;;5.28;2.33;;;;;;;8.34;100.00;100739.53;4826615;29;20591;-58
2023/06/09 09:38:31;;;;;;;4.85;2.60;;;;;;;8.33;100.00;100747.31;4826395;29;21435;-60
2023/06/09 09:41:02;;;;;;;4.13;2.38;;;;;;;8.31;100.00;100754.25;4825905;29;20923;-59
2023/06/09 09:43:48;;;;;;;5.95;2.47;;;;;;;8.29;100.00;100740.41;4836065;29;20049;-59
2023/06/09 09:46:22;;;;;;;3.78;2.30;;;;;;;8.20;100.00;100731.69;4856308;29;20060;-60
2023/06/09 09:48:58;;;;;;;5.78;2.60;;;;;;;8.27;100.00;100743.00;4909937;28;20166;-60
2023/06/09 09:51:31;;;;;;;5.38;2.70;;;;;;;8.24;100.00;100736.91;4920140;28;20693;-60
2023/06/09 09:54:05;;;;;;;5.38;2.90;;;;;;;7.58;100.00;100631.00;4910161;28;20149;-61
2023/06/09 09:56:38;;;;;;;6.93;3.03;;;;;;;8.24;100.00;100743.00;4909660;28;20047;-60
2023/06/09 09:59:10;;;;;;;7.85;2.80;;;;;;;8.25;100.00;100746.47;4919793;28;20059;-59
2023/06/09 10:01:42;;;;;;;3.65;2.28;;;;;;;8.13;100.00;100739.50;4909548;28;20143;-60
2023/06/09 10:04:14;;;;;;;4.38;2.70;;;;;;;8.16;100.00;100740.38;4978001;28;20077;-59
2023/06/09 10:06:46;;;;;;;6.45;3.17;;;;;;;8.24;100.00;100742.09;5020515;28;20642;-59
2023/06/09 10:09:19;;;;;;;5.60;3.20;;;;;;;7.95;100.00;100709.13;5039197;28;20040;-60
2023/06/09 10:11:54;;;;;;;7.57;2.90;;;;;;;7.93;100.00;100726.44;5028829;28;20393;-60
2023/06/09 10:17:17;;;;;;;6.40;3.42;;;;;;;8.09;100.00;100736.03;5035928;28;21123;-60
2023/06/09 10:19:55;;;;;;;6.05;3.47;;;;;;;8.17;100.00;100755.13;5027831;28;20044;-60
2023/06/09 10:22:33;;;;;;;9.48;4.20;;;;;;;8.19;100.00;100758.59;5039178;28;20052;-61
2023/06/09 10:28:00;;;;;;;5.25;3.45;;;;;;;8.14;100.00;100755.13;5028159;28;20063;-59
2023/06/09 10:30:33;;;;;;;7.85;3.70;;;;;;;8.08;100.00;100752.50;5030296;28;20084;-60
2023/06/09 10:33:15;;;;;;;6.47;3.33;;;;;;;8.06;100.00;100754.22;5038803;28;20056;-60
2023/06/09 10:35:50;;;;;;;6.45;3.47;;;;;;;8.07;100.00;100750.78;5028225;28;20106;-60
2023/06/09 10:38:28;;;;;;;8.85;3.72;;;;;;;7.96;100.00;100736.84;5038750;28;20096;-58
2023/06/09 10:41:11;;;;;;;7.03;3.58;;;;;;;8.07;100.00;100755.97;5028521;28;20143;-56
2023/06/09 10:44:04;;;;;;;9.52;4.20;;;;;;;8.07;100.00;100766.38;5028461;28;20052;-60
2023/06/09 10:46:43;;;;;;;9.23;4.40;;;;;;;7.88;100.00;100738.59;5028903;28;20033;-59
2023/06/09 10:49:39;;;;;;;6.47;3.63;;;;;;;8.01;100.00;100755.94;5038578;28;20408;-58
2023/06/09 10:52:26;;;;;;;7.45;3.63;;;;;;;8.05;100.00;100762.91;5022712;28;20052;-60
2023/06/09 10:55:13;;;;;;;8.65;4.43;;;;;;;7.99;100.00;100766.38;5028274;28;20045;-57
2023/06/09 10:57:47;;;;;;;9.50;3.80;;;;;;;7.90;100.00;100757.69;5028287;28;20064;-57
2023/06/09 11:00:19;;;;;;;10.80;5.20;;;;;;;7.88;100.00;100764.59;5057480;28;20044;-58
2023/06/09 11:03:12;;;;;;;13.15;4.53;;;;;;;7.57;100.00;100733.31;5047718;28;20088;-59
2023/06/09 11:05:45;;;;;;;9.93;3.78;;;;;;;7.77;100.00;100778.44;5047271;28;20052;-61
2023/06/09 11:08:17;;;;;;;10.88;4.82;;;;;;;7.76;100.00;100766.31;5058601;28;20600;-59
2023/06/09 11:10:48;;;;;;;12.07;4.40;;;;;;;7.80;100.00;100772.41;5047598;28;20048;-57
2023/06/09 11:13:45;;;;;;;19.15;4.78;;;;;;;7.74;100.00;100768.03;5058949;28;20147;-59
2023/06/09 11:16:17;;;;;;;6.82;4.00;;;;;;;7.74;100.00;100773.25;5035547;28;20057;-60
2023/06/09 11:19:09;;;;;;;11.82;4.30;;;;;;;7.76;100.00;100775.84;5038662;28;20053;-59
2023/06/09 11:22:01;;;;;;;8.88;4.38;;;;;;;7.67;100.00;100758.47;5038194;28;20060;-60
2023/06/09 11:24:50;;;;;;;28.52;3.95;;;;;;;7.71;100.00;100778.44;5040230;28;20059;-59
2023/06/09 11:27:23;;;;;;;18.42;3.97;;;;;;;7.69;100.00;100769.75;5049063;28;20143;-59
2023/06/09 11:30:11;;;;;;;6.72;3.83;;;;;;;7.45;100.00;100728.06;5038766;28;20158;-60
2023/06/09 11:32:47;;;;;;;16.75;3.75;;;;;;;7.73;100.00;100779.28;5038638;28;20070;-60
2023/06/09 11:35:43;;;;;;;8.02;3.47;;;;;;;7.73;100.00;100788.84;5048810;28;20544;-59
2023/06/09 11:38:22;;;;;;;6.90;3.97;;;;;;;7.02;100.00;100665.50;5048302;28;20167;-59
2023/06/09 11:40:55;;;;;;;9.40;4.22;;;;;;;7.52;100.00;100724.63;5038525;28;20133;-58
2023/06/09 11:43:27;;;;;;;11.07;4.25;;;;;;;7.20;100.00;100686.38;5049476;28;20056;-59
2023/06/09 11:46:05;;;;;;;22.45;4.30;;;;;;;7.76;100.00;100786.25;5038506;28;20058;-60
2023/06/09 11:48:36;;;;;;;15.35;4.40;;;;;;;7.80;100.00;100787.13;5037614;28;20141;-60
2023/06/09 11:51:08;;;;;;;36.20;4.35;;;;;;;7.77;100.00;100788.88;5048552;28;20052;-59
2023/06/09 11:53:40;;;;;;;12.55;3.65;;;;;;;7.74;100.00;100791.47;5038688;28;20054;-59
2023/06/09 11:56:12;;;;;;;52.40;4.32;;;;;;;7.71;100.00;100791.47;5048083;28;20481;-59
2023/06/09 11:58:44;;;;;;;31.80;3.92;;;;;;;7.67;100.00;100776.69;5038252;28;20135;-59
2023/06/09 12:01:23;;;;;;;25.35;3.88;;;;;;;7.74;100.00;100782.78;5051978;28;20083;-59
2023/06/09 12:03:56;;;;;;;8.63;3.50;;;;;;;7.73;100.00;100779.28;5042305;28;20121;-59
2023/06/09 12:06:27;;;;;;;14.80;3.80;;;;;;;7.74;100.00;100773.25;5052254;28;20052;-60
2023/06/09 12:09:23;;;;;;;11.85;3.55;;;;;;;7.71;100.00;100772.34;5025354;28;20055;-58
2023/06/09 12:11:55;;;;;;;9.90;3.45;;;;;;;7.69;100.00;100759.34;5033667;28;20825;-60
2023/06/09 12:14:27;;;;;;;39.95;3.85;;;;;;;7.67;100.00;100763.69;5052014;28;20048;-59
2023/06/09 12:17:00;;;;;;;9.63;3.15;;;;;;;7.59;100.00;100747.19;5041442;28;20139;-58